createdAt,value
2022-10-06T00:00:25.364Z,14.09
2022-10-06T00:02:55.669Z,13.99
2022-10-06T00:05:25.193Z,13.99
2022-10-06T00:07:55.458Z,13.95
2022-10-06T00:10:25.646Z,14.01
2022-10-06T00:12:54.731Z,14.06
2022-10-06T00:15:25.727Z,13.85
2022-10-06T00:17:57.445Z,13.69
2022-10-06T00:20:27.911Z,13.27
2022-10-06T00:22:57.534Z,13.75
2022-10-06T00:25:28.361Z,13.67
2022-10-06T00:27:57.429Z,13.40
2022-10-06T00:30:28.233Z,13.60
2022-10-06T00:33:03.573Z,13.39
2022-10-06T00:35:33.723Z,13.39
2022-10-06T00:38:03.076Z,13.31
2022-10-06T00:40:33.270Z,13.66
2022-10-06T00:43:04.190Z,13.51
2022-10-06T00:45:38.304Z,13.62
2022-10-06T00:48:11.776Z,13.68
2022-10-06T00:50:42.087Z,13.47
2022-10-06T00:53:14.747Z,13.53
2022-10-06T00:55:45.935Z,13.59
2022-10-06T00:58:16.066Z,13.58
2022-10-06T01:00:46.597Z,13.46
2022-10-06T01:03:20.380Z,13.50
2022-10-06T01:05:52.721Z,13.41
2022-10-06T01:08:23.905Z,13.33
2022-10-06T01:10:52.898Z,13.66
2022-10-06T01:13:23.471Z,13.61
2022-10-06T01:15:57.402Z,13.56
2022-10-06T01:18:31.472Z,13.38
2022-10-06T01:21:07.798Z,13.41
2022-10-06T01:23:38.123Z,13.50
2022-10-06T01:26:11.367Z,13.29
2022-10-06T01:28:41.124Z,13.30
2022-10-06T01:31:12.275Z,13.24
2022-10-06T01:33:41.818Z,12.91
2022-10-06T01:36:10.826Z,13.05
2022-10-06T01:38:44.534Z,13.01
2022-10-06T01:41:16.176Z,13.15
2022-10-06T01:43:44.966Z,13.26
2022-10-06T01:46:13.705Z,13.31
2022-10-06T01:48:43.005Z,13.13
2022-10-06T01:51:16.091Z,13.17
2022-10-06T01:53:46.518Z,13.07
2022-10-06T01:56:15.241Z,13.26
2022-10-06T01:58:46.918Z,12.85
2022-10-06T02:01:18.887Z,12.88
2022-10-06T02:03:47.720Z,12.81
2022-10-06T02:06:16.448Z,12.83
2022-10-06T02:08:49.213Z,12.69
2022-10-06T02:11:20.060Z,12.68
2022-10-06T02:13:50.975Z,12.71
2022-10-06T02:16:22.131Z,12.56
2022-10-06T02:18:50.942Z,12.63
2022-10-06T02:21:23.021Z,12.64
2022-10-06T02:23:53.139Z,12.49
2022-10-06T02:26:21.897Z,12.50
2022-10-06T02:28:54.643Z,12.36
2022-10-06T02:31:26.116Z,12.49
2022-10-06T02:33:58.959Z,12.69
2022-10-06T02:36:27.671Z,12.70
2022-10-06T02:38:58.508Z,12.46
2022-10-06T02:41:27.490Z,12.44
2022-10-06T02:43:56.336Z,12.51
2022-10-06T02:46:26.438Z,12.75
2022-10-06T02:48:57.822Z,12.49
2022-10-06T02:51:26.623Z,12.42
2022-10-06T02:53:56.271Z,12.49
2022-10-06T02:56:28.807Z,12.38
2022-10-06T02:59:00.611Z,12.39
2022-10-06T03:01:32.828Z,12.45
2022-10-06T03:04:11.649Z,12.57
2022-10-06T03:06:43.681Z,12.43
2022-10-06T03:09:21.215Z,12.46
2022-10-06T03:11:52.054Z,12.33
2022-10-06T03:14:33.335Z,12.28
2022-10-06T03:17:02.034Z,12.33
2022-10-06T03:19:31.844Z,12.27
2022-10-06T03:22:01.344Z,12.28
2022-10-06T03:24:38.932Z,12.27
2022-10-06T03:27:09.244Z,12.43
2022-10-06T03:29:38.025Z,12.42
2022-10-06T03:32:07.323Z,12.12
2022-10-06T03:34:37.650Z,12.14
2022-10-06T03:37:11.351Z,12.09
2022-10-06T03:39:42.699Z,12.12
2022-10-06T03:42:14.066Z,12.38
2022-10-06T03:44:43.883Z,12.26
2022-10-06T03:47:16.987Z,12.10
2022-10-06T03:49:46.737Z,12.17
2022-10-06T03:52:25.767Z,12.21
2022-10-06T03:54:55.299Z,12.16
2022-10-06T03:57:26.088Z,12.14
2022-10-06T03:59:59.271Z,12.08
2022-10-06T04:02:28.392Z,12.24
2022-10-06T04:05:00.324Z,12.18
2022-10-06T04:07:29.088Z,12.09
2022-10-06T04:09:58.096Z,11.96
2022-10-06T04:12:30.496Z,11.81
2022-10-06T04:15:00.306Z,11.96
2022-10-06T04:17:30.133Z,11.77
2022-10-06T04:19:59.243Z,11.82
2022-10-06T04:22:27.987Z,11.62
2022-10-06T04:24:56.704Z,11.94
2022-10-06T04:27:30.999Z,11.91
2022-10-06T04:30:16.942Z,11.78
2022-10-06T04:32:46.431Z,11.69
2022-10-06T04:35:15.425Z,11.74
2022-10-06T04:37:44.550Z,11.73
2022-10-06T04:40:16.073Z,11.79
2022-10-06T04:42:45.626Z,11.63
2022-10-06T04:45:18.838Z,11.69
2022-10-06T04:47:49.753Z,11.59
2022-10-06T04:50:18.724Z,11.67
2022-10-06T04:53:05.856Z,11.45
2022-10-06T04:55:34.755Z,11.55
2022-10-06T04:58:04.303Z,11.51
2022-10-06T05:00:34.526Z,11.40
2022-10-06T05:03:03.230Z,11.47
2022-10-06T05:05:32.175Z,11.41
2022-10-06T05:08:00.916Z,11.53
2022-10-06T05:10:30.209Z,11.38
2022-10-06T05:12:59.262Z,11.28
2022-10-06T05:15:29.220Z,11.25
2022-10-06T05:17:59.554Z,11.48
2022-10-06T05:20:28.613Z,11.39
2022-10-06T05:22:57.652Z,11.23
2022-10-06T05:25:26.892Z,11.12
2022-10-06T05:27:56.066Z,11.09
2022-10-06T05:30:28.166Z,11.02
2022-10-06T05:33:01.290Z,11.01
2022-10-06T05:35:33.029Z,11.01
2022-10-06T05:38:01.810Z,11.05
2022-10-06T05:40:31.383Z,10.96
2022-10-06T05:43:00.265Z,11.07
2022-10-06T05:45:29.691Z,10.98
2022-10-06T05:48:03.207Z,10.94
2022-10-06T05:50:32.668Z,10.93
2022-10-06T05:53:01.323Z,10.73
2022-10-06T05:55:32.031Z,10.76
2022-10-06T05:58:01.096Z,10.82
2022-10-06T06:00:35.105Z,10.92
2022-10-06T06:03:05.916Z,11.08
2022-10-06T06:05:34.935Z,11.10
2022-10-06T06:08:06.111Z,11.00
2022-10-06T06:10:34.834Z,11.05
2022-10-06T06:13:08.165Z,11.10
2022-10-06T06:16:04.110Z,10.90
2022-10-06T06:18:38.296Z,10.84
2022-10-06T06:21:10.420Z,10.88
2022-10-06T06:23:44.188Z,10.89
2022-10-06T06:26:15.256Z,10.86
2022-10-06T06:28:48.695Z,10.79
2022-10-06T06:31:21.234Z,10.90
2022-10-06T06:33:57.018Z,10.97
2022-10-06T06:36:32.053Z,10.89
2022-10-06T06:39:05.730Z,10.91
2022-10-06T06:41:38.433Z,11.00
2022-10-06T06:44:14.032Z,11.05
2022-10-06T06:46:53.220Z,11.17
2022-10-06T06:49:24.091Z,11.16
2022-10-06T06:51:57.949Z,11.02
2022-10-06T06:54:31.637Z,11.17
2022-10-06T06:57:05.465Z,11.01
2022-10-06T06:59:35.305Z,11.08
2022-10-06T07:02:04.717Z,11.04
2022-10-06T07:04:38.776Z,11.00
2022-10-06T07:07:12.218Z,11.16
2022-10-06T07:09:43.409Z,11.06
2022-10-06T07:12:14.166Z,11.13
2022-10-06T07:14:59.622Z,11.17
2022-10-06T07:17:48.219Z,11.26
2022-10-06T07:20:36.280Z,11.31
2022-10-06T07:23:23.665Z,11.36
2022-10-06T07:25:54.216Z,11.39
2022-10-06T07:28:23.784Z,11.49
2022-10-06T07:30:53.287Z,11.69
2022-10-06T07:33:28.471Z,11.66
2022-10-06T07:35:59.241Z,11.94
2022-10-06T07:38:30.763Z,11.92
2022-10-06T07:41:18.291Z,11.78
2022-10-06T07:43:53.892Z,11.77
2022-10-06T07:46:25.630Z,11.88
2022-10-06T07:49:07.445Z,11.69
2022-10-06T07:51:40.513Z,11.87
2022-10-06T07:54:09.593Z,12.02
2022-10-06T07:57:01.447Z,12.25
2022-10-06T07:59:30.295Z,12.21
2022-10-06T08:01:59.053Z,12.10
2022-10-06T08:04:27.751Z,12.32
2022-10-06T08:07:00.933Z,12.50
2022-10-06T08:09:30.762Z,12.57
2022-10-06T08:12:19.587Z,12.81
2022-10-06T08:14:48.444Z,12.85
2022-10-06T08:17:22.068Z,12.99
2022-10-06T08:19:51.251Z,13.17
2022-10-06T08:22:22.422Z,13.35
2022-10-06T08:25:05.350Z,13.47
2022-10-06T08:27:35.628Z,13.59
2022-10-06T08:30:05.779Z,13.76
2022-10-06T08:32:37.805Z,13.94
2022-10-06T08:35:12.424Z,14.19
2022-10-06T08:37:43.002Z,14.47
2022-10-06T08:40:15.784Z,14.55
2022-10-06T08:42:48.621Z,14.65
2022-10-06T08:45:24.178Z,14.97
2022-10-06T08:48:01.222Z,15.05
2022-10-06T08:50:33.800Z,15.36
2022-10-06T08:53:15.571Z,15.40
2022-10-06T08:55:49.287Z,15.32
2022-10-06T08:58:29.352Z,15.47
2022-10-06T09:01:07.368Z,15.88
2022-10-06T09:03:37.973Z,15.90
2022-10-06T09:06:17.420Z,15.97
2022-10-06T09:08:53.249Z,16.11
2022-10-06T09:11:46.552Z,15.74
2022-10-06T09:14:21.027Z,15.78
2022-10-06T09:16:54.876Z,15.80
2022-10-06T09:19:32.874Z,15.81
2022-10-06T09:22:05.674Z,15.81
2022-10-06T09:24:47.008Z,15.74
2022-10-06T09:27:19.989Z,15.47
2022-10-06T09:29:50.103Z,15.43
2022-10-06T09:32:21.856Z,15.61
2022-10-06T09:34:52.480Z,15.92
2022-10-06T09:37:21.881Z,16.19
2022-10-06T09:39:57.358Z,16.30
2022-10-06T09:42:30.375Z,16.45
2022-10-06T09:45:01.977Z,16.64
2022-10-06T09:47:39.096Z,17.13
2022-10-06T09:50:20.626Z,16.33
2022-10-06T09:53:05.675Z,17.02
2022-10-06T09:55:54.765Z,17.04
2022-10-06T09:58:31.480Z,17.36
2022-10-06T10:01:09.003Z,17.59
2022-10-06T10:04:15.520Z,17.75
2022-10-06T10:06:43.387Z,17.59
2022-10-06T10:09:24.632Z,17.53
2022-10-06T10:12:32.271Z,17.83
2022-10-06T10:15:04.650Z,17.73
2022-10-06T10:17:49.119Z,17.62
2022-10-06T10:20:29.207Z,17.66
2022-10-06T10:23:04.002Z,17.31
2022-10-06T10:26:03.187Z,17.16
2022-10-06T10:29:08.005Z,17.53
2022-10-06T10:31:49.189Z,17.56
2022-10-06T10:34:38.275Z,17.85
2022-10-06T10:37:12.279Z,18.02
2022-10-06T10:39:49.558Z,18.05
2022-10-06T10:42:23.145Z,18.36
2022-10-06T10:45:00.326Z,18.45
2022-10-06T10:47:35.083Z,18.40
2022-10-06T10:50:12.739Z,18.55
2022-10-06T10:52:45.623Z,19.06
2022-10-06T10:55:27.269Z,18.95
2022-10-06T10:58:02.296Z,19.23
2022-10-06T11:00:39.659Z,19.17
2022-10-06T11:03:11.784Z,19.07
2022-10-06T11:05:58.098Z,19.11
2022-10-06T11:08:34.196Z,19.11
2022-10-06T11:11:09.589Z,19.22
2022-10-06T11:13:44.467Z,19.20
2022-10-06T11:16:27.200Z,19.31
2022-10-06T11:19:09.891Z,19.29
2022-10-06T11:21:45.437Z,19.13
2022-10-06T11:24:21.878Z,18.97
2022-10-06T11:27:19.362Z,18.68
2022-10-06T11:29:58.350Z,18.78
2022-10-06T11:32:36.844Z,18.91
2022-10-06T11:35:19.021Z,18.71
2022-10-06T11:37:52.223Z,18.67
2022-10-06T11:40:37.094Z,18.70
2022-10-06T11:43:13.354Z,18.22
2022-10-06T11:45:49.544Z,18.90
2022-10-06T11:48:28.366Z,18.91
2022-10-06T11:50:57.605Z,18.96
2022-10-06T11:53:40.215Z,18.93
2022-10-06T11:56:45.793Z,19.04
2022-10-06T11:59:30.427Z,18.73
2022-10-06T12:02:03.186Z,18.63
2022-10-06T12:04:33.399Z,18.56
2022-10-06T12:07:06.450Z,18.86
2022-10-06T12:09:53.385Z,18.75
2022-10-06T12:13:06.892Z,19.04
2022-10-06T12:17:09.319Z,18.91
2022-10-06T12:19:03.735Z,18.86
2022-10-06T12:21:53.286Z,19.01
2022-10-06T12:24:41.457Z,18.99
2022-10-06T12:27:48.747Z,18.94
2022-10-06T12:30:22.800Z,19.15
2022-10-06T12:32:54.919Z,19.16
2022-10-06T12:35:32.072Z,19.14
2022-10-06T12:38:06.262Z,19.21
2022-10-06T12:40:59.596Z,18.86
2022-10-06T12:43:49.705Z,19.00
2022-10-06T12:46:27.023Z,19.13
2022-10-06T12:49:08.796Z,19.14
2022-10-06T12:51:41.908Z,19.16
2022-10-06T12:54:20.562Z,19.26
2022-10-06T12:56:58.996Z,18.73
2022-10-06T12:59:31.750Z,19.26
2022-10-06T13:02:03.511Z,19.31
2022-10-06T13:04:35.513Z,19.10
2022-10-06T13:07:15.195Z,19.26
2022-10-06T13:09:46.737Z,19.24
2022-10-06T13:12:27.940Z,19.00
2022-10-06T13:15:16.258Z,18.93
2022-10-06T13:17:48.743Z,18.88
2022-10-06T13:20:23.887Z,18.72
2022-10-06T13:23:00.620Z,18.78
2022-10-06T13:25:44.384Z,19.03
2022-10-06T13:28:24.110Z,18.75
2022-10-06T13:30:55.083Z,18.77
2022-10-06T13:33:25.205Z,18.68
2022-10-06T13:35:55.269Z,18.87
2022-10-06T13:38:23.962Z,18.90
2022-10-06T13:41:25.939Z,18.81
2022-10-06T13:43:58.440Z,18.72
2022-10-06T13:46:29.705Z,18.53
2022-10-06T13:49:03.498Z,18.61
2022-10-06T13:51:33.681Z,18.45
2022-10-06T13:54:24.007Z,18.45
2022-10-06T13:56:54.482Z,18.72
2022-10-06T13:59:35.848Z,18.57
2022-10-06T14:02:24.439Z,18.40
2022-10-06T14:05:27.039Z,18.30
2022-10-06T14:07:59.254Z,18.13
2022-10-06T14:10:33.520Z,18.09
2022-10-06T14:13:09.002Z,18.33
2022-10-06T14:15:46.736Z,18.24
2022-10-06T14:18:23.284Z,18.14
2022-10-06T14:20:53.388Z,18.10
2022-10-06T14:23:36.026Z,18.15
2022-10-06T14:26:05.158Z,18.06
2022-10-06T14:28:38.177Z,18.14
2022-10-06T14:31:10.726Z,18.03
2022-10-06T14:33:42.467Z,17.88
2022-10-06T14:36:18.266Z,18.02
2022-10-06T14:38:49.498Z,17.98
2022-10-06T14:41:24.829Z,17.67
2022-10-06T14:43:56.045Z,17.55
2022-10-06T14:46:25.982Z,17.70
2022-10-06T14:48:55.296Z,17.59
2022-10-06T14:51:24.912Z,17.63
2022-10-06T14:53:54.866Z,17.39
2022-10-06T14:56:27.801Z,17.36
2022-10-06T14:59:00.143Z,17.29
2022-10-06T15:01:30.151Z,17.45
2022-10-06T15:04:00.708Z,17.39
2022-10-06T15:06:47.066Z,17.16
2022-10-06T15:09:16.076Z,17.06
2022-10-06T15:11:44.776Z,17.21
2022-10-06T15:14:17.363Z,17.21
2022-10-06T15:16:46.149Z,17.34
2022-10-06T15:19:14.896Z,17.02
2022-10-06T15:21:46.303Z,16.98
2022-10-06T15:24:17.027Z,16.66
2022-10-06T15:27:06.273Z,16.83
2022-10-06T15:29:37.816Z,16.51
2022-10-06T15:32:11.778Z,15.85
2022-10-06T15:34:43.540Z,16.66
2022-10-06T15:37:14.725Z,16.71
2022-10-06T15:39:44.344Z,16.67
2022-10-06T15:42:15.510Z,16.37
2022-10-06T15:44:45.857Z,16.26
2022-10-06T15:47:17.157Z,16.22
2022-10-06T15:49:47.072Z,16.27
2022-10-06T15:52:17.740Z,16.25
2022-10-06T15:54:49.882Z,16.26
2022-10-06T15:57:21.209Z,16.24
2022-10-06T15:59:53.863Z,15.68
2022-10-06T16:02:23.001Z,16.23
2022-10-06T16:05:17.844Z,16.22
2022-10-06T16:07:47.342Z,16.22
2022-10-06T16:10:16.272Z,16.17
2022-10-06T16:12:44.947Z,16.44
2022-10-06T16:15:15.331Z,16.30
2022-10-06T16:17:46.288Z,16.20
2022-10-06T16:20:16.730Z,16.15
2022-10-06T16:22:45.406Z,15.98
2022-10-06T16:25:14.275Z,16.00
2022-10-06T16:27:43.986Z,16.14
2022-10-06T16:30:14.398Z,16.02
2022-10-06T16:32:46.247Z,15.82
2022-10-06T16:35:18.340Z,15.70
2022-10-06T16:37:50.141Z,15.50
2022-10-06T16:40:19.242Z,15.61
2022-10-06T16:42:48.142Z,15.41
2022-10-06T16:45:21.270Z,15.42
2022-10-06T16:47:50.198Z,15.26
2022-10-06T16:50:18.783Z,15.18
2022-10-06T16:52:47.690Z,15.33
2022-10-06T16:55:16.471Z,15.10
2022-10-06T16:57:45.607Z,15.10
2022-10-06T17:00:15.059Z,14.98
2022-10-06T17:02:45.186Z,14.92
2022-10-06T17:06:40.840Z,14.84
2022-10-06T17:09:14.002Z,14.82
2022-10-06T17:11:44.325Z,14.79
2022-10-06T17:14:13.173Z,14.71
2022-10-06T17:16:44.367Z,14.65
2022-10-06T17:19:15.916Z,14.62
2022-10-06T17:21:47.421Z,14.52
2022-10-06T17:24:20.441Z,14.39
2022-10-06T17:26:50.555Z,14.54
2022-10-06T17:29:21.580Z,14.51
2022-10-06T17:31:59.908Z,14.29
2022-10-06T17:34:32.665Z,14.37
2022-10-06T17:37:03.137Z,14.34
2022-10-06T17:39:32.094Z,14.36
2022-10-06T17:42:00.734Z,14.35
2022-10-06T17:44:31.153Z,14.06
2022-10-06T17:47:01.356Z,14.18
2022-10-06T17:49:35.388Z,13.67
2022-10-06T17:52:05.868Z,14.18
2022-10-06T17:54:34.855Z,14.05
2022-10-06T17:57:03.783Z,13.98
2022-10-06T17:59:33.845Z,13.45
2022-10-06T18:02:06.548Z,13.90
2022-10-06T18:04:39.103Z,13.96
2022-10-06T18:07:08.507Z,13.91
2022-10-06T18:10:01.112Z,13.91
2022-10-06T18:12:38.732Z,13.90
2022-10-06T18:15:12.467Z,13.88
2022-10-06T18:17:42.608Z,13.81
2022-10-06T18:20:21.486Z,13.97
2022-10-06T18:22:50.798Z,13.90
2022-10-06T18:25:24.501Z,13.85
2022-10-06T18:27:56.495Z,13.62
2022-10-06T18:30:29.457Z,13.50
2022-10-06T18:36:06.715Z,13.44
2022-10-06T18:38:47.027Z,13.36
2022-10-06T18:41:22.779Z,13.28
2022-10-06T18:43:54.959Z,13.54
2022-10-06T18:46:42.109Z,13.57
2022-10-06T18:49:13.589Z,13.62
2022-10-06T18:51:45.682Z,13.38
2022-10-06T18:54:16.897Z,13.18
2022-10-06T18:56:51.734Z,13.23
2022-10-06T18:59:23.475Z,13.26
2022-10-06T19:01:52.680Z,13.07
2022-10-06T19:04:23.480Z,12.87
2022-10-06T19:06:56.548Z,12.96
2022-10-06T19:09:26.548Z,13.01
2022-10-06T19:11:57.884Z,13.26
2022-10-06T19:14:30.134Z,13.24
2022-10-06T19:17:01.156Z,13.06
2022-10-06T19:19:33.598Z,12.95
2022-10-06T19:22:05.887Z,13.01
2022-10-06T19:24:38.728Z,12.84
2022-10-06T19:27:12.256Z,12.49
2022-10-06T19:29:46.031Z,12.37
2022-10-06T19:32:21.654Z,12.48
2022-10-06T19:34:50.974Z,12.65
2022-10-06T19:37:21.044Z,12.62
2022-10-06T19:39:50.248Z,12.66
2022-10-06T19:42:37.588Z,12.62
2022-10-06T19:45:35.706Z,12.36
2022-10-06T19:48:05.023Z,12.20
2022-10-06T19:50:36.111Z,12.16
2022-10-06T19:53:06.658Z,12.19
2022-10-06T19:55:36.055Z,12.18
2022-10-06T19:58:05.517Z,12.21
2022-10-06T20:00:34.319Z,12.33
2022-10-06T20:03:07.641Z,12.18
2022-10-06T20:05:38.404Z,11.97
2022-10-06T20:08:08.722Z,11.79
2022-10-06T20:10:37.561Z,11.69
2022-10-06T20:13:09.867Z,11.25
2022-10-06T20:15:39.275Z,11.79
2022-10-06T20:18:09.476Z,12.13
2022-10-06T20:20:38.367Z,12.06
2022-10-06T20:23:08.969Z,12.12
2022-10-06T20:25:37.936Z,11.91
2022-10-06T20:28:09.379Z,11.81
2022-10-06T20:30:39.364Z,11.64
2022-10-06T20:33:11.470Z,11.79
2022-10-06T20:35:40.471Z,11.65
2022-10-06T20:38:10.694Z,11.43
2022-10-06T20:40:49.204Z,11.98
2022-10-06T20:43:17.912Z,11.68
2022-10-06T20:45:47.290Z,11.63
2022-10-06T20:48:18.693Z,11.59
2022-10-06T20:50:48.040Z,11.71
2022-10-06T20:53:18.034Z,11.52
2022-10-06T20:55:52.182Z,11.65
2022-10-06T20:58:25.187Z,11.37
2022-10-06T21:00:54.634Z,11.26
2022-10-06T21:03:25.926Z,11.42
2022-10-06T21:05:54.657Z,11.71
2022-10-06T21:08:27.154Z,11.40
2022-10-06T21:10:59.513Z,11.54
2022-10-06T21:13:29.453Z,11.52
2022-10-06T21:16:00.805Z,11.11
2022-10-06T21:18:32.703Z,11.01
2022-10-06T21:21:07.566Z,11.05
2022-10-06T21:23:42.174Z,11.33
2022-10-06T21:26:13.484Z,11.30
2022-10-06T21:28:45.502Z,11.28
2022-10-06T21:31:17.052Z,11.25
2022-10-06T21:33:47.069Z,11.19
2022-10-06T21:36:17.669Z,11.27
2022-10-06T21:38:49.463Z,11.05
2022-10-06T21:41:30.458Z,11.19
2022-10-06T21:44:00.917Z,11.22
2022-10-06T21:46:32.042Z,11.22
2022-10-06T21:49:02.002Z,11.23
2022-10-06T21:51:33.262Z,11.41
2022-10-06T21:54:03.908Z,11.04
2022-10-06T21:56:34.194Z,11.09
2022-10-06T21:59:04.650Z,10.98
2022-10-06T22:01:35.601Z,10.83
2022-10-06T22:04:04.652Z,10.75
2022-10-06T22:06:36.896Z,10.73
2022-10-06T22:09:12.683Z,10.80
2022-10-06T22:11:42.484Z,10.79
2022-10-06T22:14:13.762Z,10.84
2022-10-06T22:16:44.065Z,10.57
2022-10-06T22:19:14.487Z,10.65
2022-10-06T22:21:45.293Z,10.74
2022-10-06T22:24:18.233Z,10.34
2022-10-06T22:26:47.552Z,10.85
2022-10-06T22:29:17.962Z,10.66
2022-10-06T22:31:47.894Z,10.55
2022-10-06T22:34:18.748Z,10.75
2022-10-06T22:36:47.747Z,10.55
2022-10-06T22:39:18.908Z,10.57
2022-10-06T22:41:47.600Z,10.53
2022-10-06T22:44:16.656Z,10.40
2022-10-06T22:46:47.972Z,10.72
2022-10-06T22:49:16.714Z,10.59
2022-10-06T22:51:45.297Z,10.58
2022-10-06T22:54:19.943Z,9.86
2022-10-06T22:56:48.956Z,10.55
2022-10-06T22:59:17.648Z,10.50
2022-10-06T23:01:46.872Z,10.66
2022-10-06T23:04:16.374Z,10.52
2022-10-06T23:06:45.039Z,10.44
2022-10-06T23:09:14.199Z,10.50
2022-10-06T23:11:44.226Z,10.51
2022-10-06T23:14:12.915Z,10.62
2022-10-06T23:16:41.584Z,10.50
2022-10-06T23:19:12.666Z,10.43
2022-10-06T23:21:41.489Z,10.42
2022-10-06T23:24:10.152Z,10.39
2022-10-06T23:26:40.181Z,10.43
2022-10-06T23:29:12.864Z,10.34
2022-10-06T23:31:41.852Z,10.12
2022-10-06T23:34:11.074Z,10.08
2022-10-06T23:36:39.913Z,10.13
2022-10-06T23:39:08.513Z,10.19
2022-10-06T23:41:41.565Z,10.42
2022-10-06T23:44:11.711Z,10.33
2022-10-06T23:46:40.359Z,10.34
2022-10-06T23:49:09.237Z,10.63
2022-10-06T23:51:37.912Z,10.47
2022-10-06T23:54:06.636Z,10.60
2022-10-06T23:56:37.727Z,10.73
2022-10-06T23:59:08.687Z,10.63
